• Join FlightAware (Why Join?)
  • Login
  • US Flag 
12:35AM EDT


 

Airport Tracker/Info


-or-


 

Live Flight TrackerFlight Track Log ✈ N328SR ✈ 16-Jun-2013 ✈ KGON - KBTV

Flight Track Log - Related Links

Times and Time Zones

All times are in EDT time to prevent confusion due to time zone crossing. See the N328SR flight status page for this flight to view local times or setup timezone preferences in your user account.

Time Position Orientation Groundspeed Altitude Reporting Facility
EDT Latitude Longitude Course Direction KTS MPH feet Rate Location/Type
12:11PM 41.3433 -72.0917 North 198 228 900  Level Boston Center
12:13PM 41.4225 -72.0858 North 157 181 2,500 660 Climbing Boston Center
12:14PM 41.4619 -72.0550 30° Northeast 168 193 2,900 180 Climbing Boston Center
12:15PM 41.5139 -72.0214 26° Northeast 178 205 2,900 60 Level Boston Center
12:16PM 41.5617 -72.0017 17° North 189 217 3,100 480 Climbing Boston Center
12:17PM 41.6078 -72.0236 340° North 165 190 3,900 720 Climbing Boston Center
12:18PM 41.6431 -72.0372 344° North 151 174 4,600 780 Climbing Boston Center
12:19PM 41.6869 -72.0536 344° North 146 168 5,500 660 Climbing Boston Center
12:20PM 41.7225 -72.0675 344° North 146 168 6,000 660 Climbing Boston Center
12:21PM 41.7664 -72.0839 344° North 146 168 7,000 840 Climbing Boston Center
12:22PM 41.8142 -72.1031 343° North 146 168 7,900 780 Climbing Boston Center
12:23PM 41.8539 -72.1225 340° North 146 168 8,600 720 Climbing Boston Center
12:24PM 41.8956 -72.1361 346° North 146 168 9,400 600 Climbing Boston Center
12:25PM 41.9375 -72.1528 344° North 146 168 9,900 480 Climbing Boston Center
12:26PM 41.9811 -72.1664 347° North 146 168 10,400 540 Climbing Boston Center
12:27PM 42.0250 -72.1831 344° North 152 175 11,000 600 Climbing Boston Center
12:28PM 42.0708 -72.2025 343° North 162 186 11,700 420 Climbing Boston Center
12:29PM 42.1167 -72.2189 345° North 162 186 11,900  Climbing Boston Center
12:30PM 42.1647 -72.2411 341° North 167 192 11,700 -60 Descending Boston Center
12:31PM 42.2147 -72.2636 342° North 177 204 11,800 120 Climbing Boston Center
12:32PM 42.2647 -72.2803 346° North 183 211 12,000  Climbing Boston Center
12:33PM 42.3169 -72.2969 347° North 188 216 11,900 -60 Descending Boston Center
12:34PM 42.3628 -72.3136 345° North 188 216 11,900  Level Boston Center
12:35PM 42.4067 -72.3306 344° North 188 216 11,900  Level Boston Center
12:36PM 42.4692 -72.3556 344° North 188 216 11,900  Level Boston Center
12:37PM 42.5192 -72.3753 344° North 188 216 11,900  Level Boston Center
12:38PM 42.5714 -72.3950 344° North 188 216 11,900  Level Boston Center
12:39PM 42.6233 -72.4147 344° North 188 216 11,900  Level Boston Center
12:40PM 42.6756 -72.4344 344° North 188 216 11,900  Level Boston Center
12:41PM 42.7381 -72.4569 345° North 188 216 11,900  Level Boston Center
12:42PM 42.7881 -72.4797 342° North 183 211 11,900  Level Boston Center
12:43PM 42.8400 -72.4994 344° North 183 211 11,900 -60 Level Boston Center
12:44PM 42.8922 -72.5194 344° North 183 211 11,800 -60 Descending Boston Center
12:46PM 42.9444 -72.5364 347° North 183 211 11,800  Level Boston Center
12:47PM 43.0047 -72.5650 341° North 183 211 11,800  Level Boston Center
12:48PM 43.0589 -72.5850 345° North 183 211 11,800  Level Boston Center
12:49PM 43.1108 -72.6050 344° North 183 211 11,800  Level Boston Center
12:50PM 43.1631 -72.6250 344° North 183 211 11,800  Level Boston Center
12:51PM 43.2172 -72.6481 343° North 183 211 11,800  Level Boston Center
12:52PM 43.2692 -72.6681 344° North 183 211 11,800  Level Boston Center
12:53PM 43.3108 -72.6856 343° North 183 211 11,800  Level Boston Center
12:54PM 43.3753 -72.7114 344° North 183 211 11,800  Level Boston Center
12:55PM 43.4275 -72.7289 346° North 183 211 11,800  Level Boston Center
12:56PM 43.4775 -72.7492 344° North 183 211 11,800  Level Boston Center
12:57PM 43.5294 -72.7694 344° North 183 211 11,800  Level Boston Center
12:58PM 43.5814 -72.7897 344° North 183 211 11,800  Level Boston Center
12:59PM 43.6314 -72.8131 341° North 183 211 11,800  Level Boston Center
01:00PM 43.6753 -72.8306 344° North 183 211 11,800 -180 Level Boston Center
01:01PM 43.7314 -72.8539 343° North 188 216 11,500 -360 Descending Boston Center
01:02PM 43.7833 -72.8742 344° North 188 216 11,100 -420 Descending Boston Center
01:03PM 43.8375 -72.8978 343° North 188 216 10,700 -540 Descending Boston Center
01:04PM 43.8936 -72.9183 345° North 200 230 10,100 -780 Descending Boston Center
01:05PM 43.9561 -72.9447 343° North 213 245 9,200 -840 Descending Boston Center
01:06PM 44.0058 -72.9797 333° Northwest 207 238 8,500 -720 Descending Boston Center
01:07PM 44.0556 -73.0178 331° Northwest 202 232 7,800 -660 Descending Boston Center
01:08PM 44.1097 -73.0503 337° Northwest 202 232 7,200 -660 Descending Boston Center
01:09PM 44.1594 -73.0825 335° Northwest 197 227 6,500 -660 Descending Boston Center
01:10PM 44.2114 -73.1150 336° Northwest 197 227 5,900 -600 Descending Boston Center
01:11PM 44.2614 -73.1444 337° Northwest 197 227 5,400 -540 Descending Boston Center
01:12PM 44.3111 -73.1800 333° Northwest 197 227 4,900 -780 Descending Boston Center
01:13PM 44.3608 -73.2067 339° North 197 227 3,900 -900 Descending Boston Center
01:14PM 44.4044 -73.2217 346° North 197 227 3,100 -840 Descending Boston Center
01:16PM 44.4667 -73.1500 340° North  Level FlightAware Approximate
01:23PM 44.4719 -73.1533 340° North  Level Estimated